Time;durP1;ratioP1;P1;durP2;ratioP2;P2;SDS_P1;SDS_P2;PMS_P1;PMS_P2;Temp;Humidity;BMP_temperature;BMP_pressure;BME280_temperature;BME280_humidity;BME280_pressure;Samples;Min_cycle;Max_cycle;Signal;HPM_P1;HPM_P2
2021/03/13 00:00:11;;;;;;;;;;;;;;;2.23;93.47;92444.31;1433529;39;20265;31
2021/03/13 00:01:15;;;;;;;;;;;;;;;2.33;91.90;92433.00;1421546;39;20251;31
2021/03/13 00:03:57;;;;;;;;;;;;;;;2.16;93.06;92428.53;1443784;39;20264;31
2021/03/13 00:05:01;;;;;;;;;;;;;;;2.17;93.43;92416.84;1432371;39;20187;31
2021/03/13 00:09:24;;;;;;;;;;;;;;;2.23;93.34;92433.75;1441766;39;20257;31
2021/03/13 00:10:38;;;;;;;;;;;;;;;2.20;93.94;92419.47;1430070;39;21280;31
2021/03/13 00:11:52;;;;;;;;;;;;;;;2.29;92.06;92411.16;1441603;39;20247;31
2021/03/13 00:12:57;;;;;;;;;;;;;;;2.28;92.16;92420.19;1429710;39;20338;31
2021/03/13 00:14:02;;;;;;;;;;;;;;;2.30;92.39;92431.13;1426250;39;20191;31
2021/03/13 00:15:06;;;;;;;;;;;;;;;2.29;92.49;92411.16;1416149;39;22358;31
2021/03/13 00:16:11;;;;;;;;;;;;;;;2.37;91.75;92423.22;1419553;39;22406;31
2021/03/13 00:17:25;;;;;;;;;;;;;;;2.48;90.82;92415.25;1422678;39;22472;31
2021/03/13 00:18:27;;;;;;;;;;;;;;;2.44;91.04;92410.00;1422149;39;20294;31
2021/03/13 00:19:41;;;;;;;;;;;;;;;2.38;91.90;92406.25;1427788;39;20262;31
2021/03/13 00:20:46;;;;;;;;;;;;;;;2.32;92.71;92404.38;1430230;39;21236;31
2021/03/13 00:25:10;;;;;;;;;;;;;;;2.21;92.64;92417.59;1443454;39;21125;31
2021/03/13 00:26:12;;;;;;;;;;;;;;;2.15;93.31;92425.13;1432883;39;20277;31
2021/03/13 00:27:16;;;;;;;;;;;;;;;2.22;92.47;92421.72;1428463;39;20285;31
2021/03/13 00:28:30;;;;;;;;;;;;;;;2.26;93.21;92409.28;1416136;39;20357;31
2021/03/13 00:29:34;;;;;;;;;;;;;;;2.29;91.96;92418.34;1419890;39;21161;31
2021/03/13 00:30:48;;;;;;;;;;;;;;;2.21;91.66;92410.44;1414086;40;20251;31
2021/03/13 00:32:02;;;;;;;;;;;;;;;2.37;89.99;92417.94;1423993;39;21179;31
2021/03/13 00:34:19;;;;;;;;;;;;;;;2.32;90.75;92402.47;1426598;39;21694;31
2021/03/13 00:36:27;;;;;;;;;;;;;;;2.33;91.63;92395.31;1427678;39;20227;31
2021/03/13 00:37:42;;;;;;;;;;;;;;;2.33;91.01;92400.59;1421342;39;20247;31
2021/03/13 00:38:56;;;;;;;;;;;;;;;2.29;90.10;92405.91;1422038;39;20330;31
2021/03/13 00:40:00;;;;;;;;;;;;;;;2.26;90.50;92402.13;1413272;39;22862;31
2021/03/13 00:42:17;;;;;;;;;;;;;;;2.16;92.36;92389.72;1413133;39;20236;31
2021/03/13 00:43:21;;;;;;;;;;;;;;;2.11;91.76;92391.97;1413081;40;21161;31
2021/03/13 00:45:38;;;;;;;;;;;;;;;2.02;92.69;92392.41;1446644;39;20232;31
2021/03/13 00:46:41;;;;;;;;;;;;;;;2.09;92.04;92399.53;1427333;39;22879;31
2021/03/13 00:47:45;;;;;;;;;;;;;;;2.11;90.34;92399.88;1427341;39;20349;31
2021/03/13 00:48:59;;;;;;;;;;;;;;;2.15;91.30;92406.69;1430965;39;20260;31
2021/03/13 00:50:13;;;;;;;;;;;;;;;2.10;90.68;92401.78;1427375;39;20258;31
2021/03/13 00:51:17;;;;;;;;;;;;;;;2.14;90.49;92407.03;1427298;39;21204;31
2021/03/13 00:52:31;;;;;;;;;;;;;;;2.16;89.85;92410.06;1417594;39;20254;31
2021/03/13 00:53:45;;;;;;;;;;;;;;;2.19;90.87;92411.94;1426085;39;20243;31
2021/03/13 00:54:49;;;;;;;;;;;;;;;2.11;91.70;92402.53;1429107;39;20242;31
2021/03/13 00:55:51;;;;;;;;;;;;;;;2.10;91.51;92403.66;1427841;39;20190;31
2021/03/13 01:00:14;;;;;;;;;;;;;;;2.20;90.46;92402.91;1429172;39;20235;31
2021/03/13 01:03:24;;;;;;;;;;;;;;;2.36;89.13;92397.19;1441906;39;21247;31
2021/03/13 01:05:32;;;;;;;;;;;;;;;2.33;89.04;92384.78;1443408;39;21684;31
2021/03/13 01:06:35;;;;;;;;;;;;;;;2.31;89.66;92379.13;1425053;39;21621;31
2021/03/13 01:07:39;;;;;;;;;;;;;;;2.29;89.78;92389.34;1425709;39;20523;31
2021/03/13 01:08:53;;;;;;;;;;;;;;;2.29;89.55;92387.44;1417018;39;20487;31
2021/03/13 01:11:11;;;;;;;;;;;;;;;2.43;88.94;92384.00;1435411;39;20260;31
2021/03/13 01:12:15;;;;;;;;;;;;;;;2.37;89.89;92378.37;1397397;39;21795;31
2021/03/13 01:13:29;;;;;;;;;;;;;;;2.37;89.63;92380.25;1434806;39;20520;31
2021/03/13 01:14:43;;;;;;;;;;;;;;;2.46;88.25;92370.81;1428320;39;20206;31
2021/03/13 01:15:47;;;;;;;;;;;;;;;2.37;89.55;92367.84;1428465;39;20265;31
2021/03/13 01:17:05;;;;;;;;;;;;;;;2.40;89.37;92361.03;1428881;39;20558;31
2021/03/13 01:18:09;;;;;;;;;;;;;;;2.43;88.54;92368.94;1402236;39;20208;31
2021/03/13 01:19:11;;;;;;;;;;;;;;;2.38;89.45;92371.97;1417490;39;20274;31
2021/03/13 01:20:25;;;;;;;;;;;;;;;2.47;88.35;92367.03;1425770;39;20274;31
2021/03/13 01:21:39;;;;;;;;;;;;;;;2.40;88.34;92372.31;1425752;39;20277;31
2021/03/13 01:22:43;;;;;;;;;;;;;;;2.37;89.78;92365.19;1427167;39;21427;31
2021/03/13 01:23:47;;;;;;;;;;;;;;;2.35;89.28;92372.72;1413831;39;21667;31
2021/03/13 01:25:01;;;;;;;;;;;;;;;2.41;88.60;92370.44;1422057;39;20260;31
2021/03/13 01:26:03;;;;;;;;;;;;;;;2.42;88.12;92369.31;1387681;39;21290;31
2021/03/13 01:27:17;;;;;;;;;;;;;;;2.46;87.78;92370.06;1349538;39;20186;31
2021/03/13 01:28:31;;;;;;;;;;;;;;;2.46;88.39;92376.09;1128314;39;20182;31
2021/03/13 01:29:45;;;;;;;;;;;;;;;2.53;87.80;92368.12;1444593;39;20222;31
2021/03/13 01:30:49;;;;;;;;;;;;;;;2.43;89.28;92365.53;1430539;39;21174;31
2021/03/13 01:32:03;;;;;;;;;;;;;;;2.43;88.80;92362.91;1428277;39;20230;31
2021/03/13 01:33:17;;;;;;;;;;;;;;;2.49;89.25;92367.41;1423859;39;20993;31
2021/03/13 01:34:21;;;;;;;;;;;;;;;2.51;88.39;92370.41;1427312;39;20249;31
2021/03/13 01:36:28;;;;;;;;;;;;;;;2.47;89.58;92361.75;1440269;39;20223;31
2021/03/13 01:37:32;;;;;;;;;;;;;;;2.49;88.27;92351.56;1420473;39;20255;31
2021/03/13 01:38:46;;;;;;;;;;;;;;;2.52;88.46;92369.28;1424424;39;21092;31
2021/03/13 01:40:00;;;;;;;;;;;;;;;2.53;88.36;92352.31;1425439;39;21086;31
2021/03/13 01:41:04;;;;;;;;;;;;;;;2.67;86.56;92356.75;1407043;39;20554;31
2021/03/13 01:42:06;;;;;;;;;;;;;;;2.65;87.10;92345.84;1415040;39;20290;31
2021/03/13 01:43:10;;;;;;;;;;;;;;;2.74;85.81;92356.00;1436421;39;21132;31
2021/03/13 01:44:14;;;;;;;;;;;;;;;2.75;86.32;92347.69;1424110;39;20235;31
2021/03/13 01:45:19;;;;;;;;;;;;;;;2.69;85.78;92348.47;1429165;39;20265;31
2021/03/13 01:47:27;;;;;;;;;;;;;;;2.69;86.78;92351.88;1430012;39;20246;31
2021/03/13 01:48:32;;;;;;;;;;;;;;;2.62;87.35;92345.88;1438133;39;20355;31
2021/03/13 01:49:46;;;;;;;;;;;;;;;2.76;86.75;92348.44;1432977;39;21008;31
2021/03/13 01:51:00;;;;;;;;;;;;;;;2.65;87.72;92351.13;1251997;39;20250;31
2021/03/13 01:52:02;;;;;;;;;;;;;;;2.68;87.32;92339.81;1393514;39;20234;31
2021/03/13 01:53:16;;;;;;;;;;;;;;;2.71;87.26;92357.50;1424097;39;20587;31
2021/03/13 01:54:18;;;;;;;;;;;;;;;2.70;87.53;92342.81;1392449;39;21099;31
2021/03/13 01:55:22;;;;;;;;;;;;;;;2.68;87.32;92341.72;1414774;39;21454;31
2021/03/13 01:56:29;;;;;;;;;;;;;;;2.69;87.10;92345.84;1425624;39;20267;31
2021/03/13 01:57:33;;;;;;;;;;;;;;;2.67;87.86;92342.81;1433898;39;21187;31
2021/03/13 02:00:55;;;;;;;;;;;;;;;2.65;86.79;92337.94;1438178;39;20237;31
2021/03/13 02:03:02;;;;;;;;;;;;;;;2.64;87.75;92323.25;1358984;39;21370;31
2021/03/13 02:04:20;;;;;;;;;;;;;;;2.67;87.19;92322.47;1422891;39;22740;31
2021/03/13 02:05:26;;;;;;;;;;;;;;;2.64;87.87;92317.97;1361028;39;21257;31
2021/03/13 02:06:30;;;;;;;;;;;;;;;2.66;86.62;92320.97;1426888;39;20227;31
2021/03/13 02:07:41;;;;;;;;;;;;;;;2.77;86.05;92316.41;1427807;39;21283;31
2021/03/13 02:09:05;;;;;;;;;;;;;;;2.81;86.55;92326.94;1428050;39;20198;31
2021/03/13 02:12:53;;;;;;;;;;;;;;;2.85;86.15;92319.72;1399293;39;20210;31
2021/03/13 02:15:00;;;;;;;;;;;;;;;2.80;85.88;92317.50;1427449;39;20438;31
2021/03/13 02:18:27;;;;;;;;;;;;;;;2.87;84.48;92306.91;1426918;39;20250;31
2021/03/13 02:19:46;;;;;;;;;;;;;;;2.81;85.45;92313.75;1419261;39;20259;31
2021/03/13 02:21:08;;;;;;;;;;;;;;;2.65;86.29;92308.91;1440691;39;20489;31
2021/03/13 02:24:17;;;;;;;;;;;;;;;2.77;85.53;92305.84;1446172;39;20174;31
2021/03/13 02:27:43;;;;;;;;;;;;;;;2.75;84.59;92294.91;1446704;39;20233;31
2021/03/13 02:28:57;;;;;;;;;;;;;;;2.92;83.72;92293.31;1430867;39;20232;31
2021/03/13 02:30:03;;;;;;;;;;;;;;;2.89;83.80;92296.72;1337964;39;20322;31
2021/03/13 02:31:17;;;;;;;;;;;;;;;2.83;84.15;92292.25;1433364;39;21047;31
2021/03/13 02:32:21;;;;;;;;;;;;;;;2.80;84.98;92296.38;1435413;39;21083;31
2021/03/13 02:34:39;;;;;;;;;;;;;;;2.81;85.41;92287.34;1442066;39;20246;31
2021/03/13 02:35:43;;;;;;;;;;;;;;;2.89;84.78;92283.50;1418534;39;22347;31
2021/03/13 02:36:47;;;;;;;;;;;;;;;2.88;84.00;92294.47;1428064;39;20591;31
2021/03/13 02:38:05;;;;;;;;;;;;;;;2.82;84.80;92294.13;1431872;39;20541;31
2021/03/13 02:39:19;;;;;;;;;;;;;;;2.70;85.43;92299.84;1438929;39;21210;31
2021/03/13 02:40:25;;;;;;;;;;;;;;;2.72;84.94;92294.94;1423201;39;20442;31
2021/03/13 02:41:32;;;;;;;;;;;;;;;2.75;85.34;92287.00;1432874;39;20546;31
2021/03/13 02:42:46;;;;;;;;;;;;;;;2.84;84.42;92286.56;1423915;39;21122;31
2021/03/13 02:43:50;;;;;;;;;;;;;;;2.89;83.55;92280.87;1407858;40;20642;31
2021/03/13 02:44:54;;;;;;;;;;;;;;;2.95;83.97;92286.50;1420164;39;22280;31
2021/03/13 02:45:59;;;;;;;;;;;;;;;2.98;83.54;92289.09;1422915;39;22447;31
2021/03/13 02:47:04;;;;;;;;;;;;;;;2.89;83.70;92288.78;1422274;39;21119;31
2021/03/13 02:48:07;;;;;;;;;;;;;;;2.85;84.16;92282.03;1423458;39;20512;31
2021/03/13 02:49:21;;;;;;;;;;;;;;;2.85;84.22;92287.31;1422717;39;20206;31
2021/03/13 02:50:35;;;;;;;;;;;;;;;2.76;84.45;92256.81;1417163;39;20353;31
2021/03/13 02:51:49;;;;;;;;;;;;;;;2.81;84.89;92266.25;1413691;39;21316;31
2021/03/13 02:52:52;;;;;;;;;;;;;;;2.88;83.67;92263.53;1424918;39;20198;31
2021/03/13 02:59:24;;;;;;;;;;;;;;;2.79;85.77;92255.31;1438289;39;20234;31
2021/03/13 03:01:41;;;;;;;;;;;;;;;2.84;83.76;92248.87;1442958;39;20336;31
2021/03/13 03:02:55;;;;;;;;;;;;;;;2.83;83.46;92261.31;1439725;39;20219;31
2021/03/13 03:03:59;;;;;;;;;;;;;;;2.76;85.08;92254.19;1430448;39;20542;31
2021/03/13 03:05:04;;;;;;;;;;;;;;;2.70;85.82;92255.00;1423602;39;20389;31
2021/03/13 03:06:08;;;;;;;;;;;;;;;2.69;85.52;92254.25;1402174;39;20249;31
2021/03/13 03:07:13;;;;;;;;;;;;;;;2.67;86.05;92250.50;1429861;39;20492;31
2021/03/13 03:11:26;;;;;;;;;;;;;;;2.69;86.46;92258.78;1431506;39;21282;31
2021/03/13 03:14:47;;;;;;;;;;;;;;;2.74;86.44;92261.00;1425601;39;20226;31
2021/03/13 03:16:01;;;;;;;;;;;;;;;2.76;85.74;92264.00;1424417;39;20254;31
2021/03/13 03:17:15;;;;;;;;;;;;;;;2.69;86.94;92246.34;1427113;39;21067;31
2021/03/13 03:18:19;;;;;;;;;;;;;;;2.51;88.18;92241.16;1415859;39;20258;-88
2021/03/13 03:19:33;;;;;;;;;;;;;;;2.59;88.67;92255.06;1426688;39;20214;31
2021/03/13 03:20:43;;;;;;;;;;;;;;;2.61;87.27;92252.03;1428357;39;20489;31
2021/03/13 03:21:46;;;;;;;;;;;;;;;2.71;88.50;92251.22;1421559;39;21565;31
2021/03/13 03:22:50;;;;;;;;;;;;;;;2.63;87.71;92239.94;1426211;39;20226;31
2021/03/13 03:23:54;;;;;;;;;;;;;;;2.64;86.79;92246.00;1422227;39;21204;31
2021/03/13 03:24:58;;;;;;;;;;;;;;;2.62;87.01;92240.34;1324927;39;20196;31
2021/03/13 03:26:02;;;;;;;;;;;;;;;2.62;86.93;92235.81;1314321;39;20578;31
2021/03/13 03:28:20;;;;;;;;;;;;;;;2.55;88.11;92237.75;1436709;39;21089;31
2021/03/13 03:29:24;;;;;;;;;;;;;;;2.45;88.43;92234.03;1438510;39;21079;31
2021/03/13 03:30:38;;;;;;;;;;;;;;;2.59;86.53;92233.19;1427108;39;20243;31
2021/03/13 03:33:58;;;;;;;;;;;;;;;2.61;87.55;92230.94;1421809;39;21151;31
2021/03/13 03:35:12;;;;;;;;;;;;;;;2.59;87.52;92227.91;1430659;39;20415;31
2021/03/13 03:36:14;;;;;;;;;;;;;;;2.67;85.89;92219.56;1429668;39;20295;31
2021/03/13 03:37:18;;;;;;;;;;;;;;;2.70;86.49;92210.16;1416041;39;21152;31
2021/03/13 03:39:35;;;;;;;;;;;;;;;2.74;84.36;92221.44;1426434;39;21548;31
2021/03/13 03:40:49;;;;;;;;;;;;;;;2.65;85.69;92213.19;1417045;39;20216;31
2021/03/13 03:41:55;;;;;;;;;;;;;;;2.68;85.53;92210.53;1421442;39;21191;31
2021/03/13 03:43:09;;;;;;;;;;;;;;;2.75;84.27;92230.84;1422140;39;21288;31
2021/03/13 03:44:13;;;;;;;;;;;;;;;2.70;84.32;92213.53;1413159;39;21259;31
2021/03/13 03:45:27;;;;;;;;;;;;;;;2.75;85.03;92210.47;1419160;39;21219;31
2021/03/13 03:46:34;;;;;;;;;;;;;;;2.83;83.46;92215.72;1428129;39;20931;31
2021/03/13 03:47:48;;;;;;;;;;;;;;;2.83;82.73;92213.06;1438741;39;20210;31
2021/03/13 03:48:53;;;;;;;;;;;;;;;2.77;84.01;92204.81;1431586;39;22780;31
2021/03/13 03:50:58;;;;;;;;;;;;;;;2.70;83.88;92199.59;1426793;39;21972;31
2021/03/13 03:52:02;;;;;;;;;;;;;;;2.71;83.65;92193.91;1443011;39;20257;31
2021/03/13 03:54:19;;;;;;;;;;;;;;;2.81;82.53;92199.50;1441958;39;20210;31
2021/03/13 03:55:25;;;;;;;;;;;;;;;2.70;84.25;92218.06;1341284;39;20249;31
2021/03/13 03:57:33;;;;;;;;;;;;;;;2.78;81.97;92201.78;1420323;39;21160;31
2021/03/13 03:58:47;;;;;;;;;;;;;;;2.77;83.25;92215.38;1431072;39;20229;31
2021/03/13 03:59:51;;;;;;;;;;;;;;;2.74;82.80;92198.44;1426020;39;20319;31
2021/03/13 04:00:55;;;;;;;;;;;;;;;2.73;82.06;92198.81;1343048;39;21762;31
2021/03/13 04:03:01;;;;;;;;;;;;;;;2.82;82.53;92206.31;1431326;39;20238;31
2021/03/13 04:04:07;;;;;;;;;;;;;;;2.74;83.03;92187.13;1414923;39;20331;31
2021/03/13 04:05:21;;;;;;;;;;;;;;;2.72;82.58;92192.81;1422875;39;21235;31
2021/03/13 04:06:26;;;;;;;;;;;;;;;2.78;82.12;92199.16;1429163;39;20553;31
2021/03/13 04:07:30;;;;;;;;;;;;;;;2.78;81.90;92203.69;1429673;39;20218;31
2021/03/13 04:10:53;;;;;;;;;;;;;;;2.81;82.32;92207.41;1440939;39;20205;31
2021/03/13 04:12:08;;;;;;;;;;;;;;;2.85;81.84;92200.22;1434538;39;20214;31
2021/03/13 04:13:22;;;;;;;;;;;;;;;2.86;81.45;92197.22;1394682;39;20550;31
2021/03/13 04:14:26;;;;;;;;;;;;;;;2.92;80.47;92200.19;1410275;39;21442;31
2021/03/13 04:15:30;;;;;;;;;;;;;;;2.81;81.75;92195.00;1423307;39;20273;31
2021/03/13 04:18:40;;;;;;;;;;;;;;;2.86;81.17;92189.31;1439829;39;20556;31
2021/03/13 04:19:43;;;;;;;;;;;;;;;2.81;81.78;92196.87;1424325;39;20374;31
2021/03/13 04:26:15;;;;;;;;;;;;;;;2.91;81.27;92206.59;1440428;39;20241;31
2021/03/13 04:27:29;;;;;;;;;;;;;;;2.93;80.60;92197.16;1427545;39;21249;31
2021/03/13 04:30:49;;;;;;;;;;;;;;;2.99;80.23;92197.50;1425265;39;20250;31
2021/03/13 04:31:54;;;;;;;;;;;;;;;2.96;80.71;92199.00;1416687;40;20622;31
2021/03/13 04:32:59;;;;;;;;;;;;;;;3.02;79.34;92194.06;1426953;39;20179;31
2021/03/13 04:34:03;;;;;;;;;;;;;;;3.03;79.42;92192.94;1422639;39;21395;31
2021/03/13 04:35:07;;;;;;;;;;;;;;;3.12;78.85;92195.13;1424353;39;20218;31
2021/03/13 04:36:21;;;;;;;;;;;;;;;3.02;80.82;92199.34;1414890;39;20534;31
2021/03/13 04:37:24;;;;;;;;;;;;;;;3.00;80.38;92197.09;1432492;39;22335;31
2021/03/13 04:38:28;;;;;;;;;;;;;;;3.05;79.17;92192.53;1424270;39;20219;31
2021/03/13 04:39:43;;;;;;;;;;;;;;;3.07;80.03;92196.28;1426639;39;20238;31
2021/03/13 04:41:51;;;;;;;;;;;;;;;3.12;78.83;92189.84;1426953;39;20321;31
2021/03/13 04:42:55;;;;;;;;;;;;;;;3.13;79.51;92193.97;1421217;39;20553;31
2021/03/13 04:46:16;;;;;;;;;;;;;;;3.02;79.28;92186.88;1449546;39;22282;-80
2021/03/13 04:47:30;;;;;;;;;;;;;;;3.11;79.19;92196.25;1429844;39;20242;31
2021/03/13 04:48:44;;;;;;;;;;;;;;;2.98;80.41;92188.06;1427680;39;20301;31
2021/03/13 04:49:46;;;;;;;;;;;;;;;2.97;81.18;92189.94;1434728;39;20273;31
2021/03/13 04:52:56;;;;;;;;;;;;;;;2.84;81.38;92181.00;1421746;39;20207;31
2021/03/13 04:54:00;;;;;;;;;;;;;;;2.87;81.91;92190.78;1429950;39;20497;31
2021/03/13 04:55:04;;;;;;;;;;;;;;;2.83;81.75;92191.97;1394763;39;20229;31
2021/03/13 04:56:08;;;;;;;;;;;;;;;2.86;82.21;92199.84;1429035;39;22333;31
2021/03/13 04:58:15;;;;;;;;;;;;;;;2.88;82.22;92183.63;1424859;39;21207;31
2021/03/13 05:02:40;;;;;;;;;;;;;;;2.83;82.68;92187.44;1443152;39;20252;31
2021/03/13 05:03:54;;;;;;;;;;;;;;;2.83;83.36;92176.88;1398478;39;20622;31
2021/03/13 05:06:11;;;;;;;;;;;;;;;2.70;84.40;92196.94;1437697;39;20210;31
2021/03/13 05:07:15;;;;;;;;;;;;;;;2.79;82.69;92197.25;1423085;39;20295;31
2021/03/13 05:09:22;;;;;;;;;;;;;;;2.88;82.36;92183.63;1437603;39;20210;31
2021/03/13 05:12:42;;;;;;;;;;;;;;;2.87;81.39;92184.78;1439789;39;20210;31
2021/03/13 05:13:56;;;;;;;;;;;;;;;2.84;82.32;92188.19;1432746;39;20265;31
2021/03/13 05:14:58;;;;;;;;;;;;;;;2.82;81.49;92180.66;1431715;39;20553;31
2021/03/13 05:16:12;;;;;;;;;;;;;;;2.89;81.67;92185.88;1436281;39;21173;31
2021/03/13 05:17:14;;;;;;;;;;;;;;;2.78;82.21;92185.22;1427286;39;21224;31
2021/03/13 05:18:18;;;;;;;;;;;;;;;2.86;81.89;92199.09;1417612;39;21353;31
2021/03/13 05:22:31;;;;;;;;;;;;;;;2.92;81.60;92189.63;1441599;39;21183;31
2021/03/13 05:23:45;;;;;;;;;;;;;;;2.93;81.65;92178.66;1433964;39;20511;31
2021/03/13 05:26:02;;;;;;;;;;;;;;;2.94;81.20;92174.13;1438413;39;20238;31
2021/03/13 05:27:06;;;;;;;;;;;;;;;2.94;80.66;92185.47;1427011;39;20984;31
2021/03/13 05:28:08;;;;;;;;;;;;;;;2.96;80.59;92193.72;1422343;39;20319;31
2021/03/13 05:29:22;;;;;;;;;;;;;;;2.93;81.71;92188.47;1428817;39;20278;31
2021/03/13 05:30:36;;;;;;;;;;;;;;;2.96;80.88;92162.06;1425811;39;20242;31
2021/03/13 05:31:38;;;;;;;;;;;;;;;2.96;80.36;92180.53;1422180;39;20241;31
2021/03/13 05:32:40;;;;;;;;;;;;;;;2.97;80.95;92179.38;1407388;40;20244;31
2021/03/13 05:33:44;;;;;;;;;;;;;;;2.92;81.24;92185.09;1417800;39;21076;31
2021/03/13 05:34:58;;;;;;;;;;;;;;;2.88;81.64;92171.19;1426717;39;20242;31
2021/03/13 05:36:12;;;;;;;;;;;;;;;2.95;80.22;92178.28;1413213;39;21170;31
2021/03/13 05:37:16;;;;;;;;;;;;;;;2.99;81.32;92182.41;1418266;39;20263;31
2021/03/13 05:38:18;;;;;;;;;;;;;;;3.01;81.67;92151.06;1430257;39;20346;31
2021/03/13 05:39:32;;;;;;;;;;;;;;;2.92;81.42;92160.59;1424219;39;21177;31
2021/03/13 05:40:34;;;;;;;;;;;;;;;2.92;81.07;92179.81;1420868;39;20463;31
2021/03/13 05:41:48;;;;;;;;;;;;;;;2.91;81.73;92173.03;1432159;39;20242;31
2021/03/13 05:42:52;;;;;;;;;;;;;;;2.86;81.42;92168.19;1434309;39;20481;31
2021/03/13 05:45:22;;;;;;;;;;;;;;;2.88;80.61;92173.81;1444241;39;21093;31
2021/03/13 05:46:34;;;;;;;;;;;;;;;2.98;81.02;92174.84;1428441;39;21097;31
2021/03/13 05:47:48;;;;;;;;;;;;;;;2.97;79.98;92176.75;1427333;39;20284;31
2021/03/13 05:48:52;;;;;;;;;;;;;;;2.87;81.30;92164.41;1417449;39;21107;31
2021/03/13 05:50:59;;;;;;;;;;;;;;;3.01;79.08;92159.00;1447980;39;20397;31
2021/03/13 05:52:04;;;;;;;;;;;;;;;3.01;80.19;92161.62;1133055;39;20105;31
2021/03/13 05:54:15;;;;;;;;;;;;;;;2.98;79.23;92148.47;1418571;39;20220;31
2021/03/13 05:57:24;;;;;;;;;;;;;;;3.00;79.26;92151.47;1430807;39;20210;31
2021/03/13 05:59:32;;;;;;;;;;;;;;;3.03;79.35;92154.09;1430842;39;21103;31
2021/03/13 06:00:46;;;;;;;;;;;;;;;3.03;79.20;92153.34;1423236;39;20231;31
2021/03/13 06:02:00;;;;;;;;;;;;;;;3.06;78.26;92155.19;1427392;39;20361;31
2021/03/13 06:03:04;;;;;;;;;;;;;;;3.05;79.72;92147.66;1421304;39;20258;31
2021/03/13 06:04:08;;;;;;;;;;;;;;;3.16;78.99;92143.78;1417715;39;21170;31
2021/03/13 06:06:23;;;;;;;;;;;;;;;3.13;78.39;92160.41;1301587;39;21191;31
2021/03/13 06:07:26;;;;;;;;;;;;;;;3.10;79.23;92132.12;1421373;39;21019;31
2021/03/13 06:08:29;;;;;;;;;;;;;;;3.14;78.46;92158.50;1414704;39;21287;31
2021/03/13 06:09:33;;;;;;;;;;;;;;;3.10;78.65;92155.91;1423392;39;21240;31
2021/03/13 06:10:47;;;;;;;;;;;;;;;3.18;78.42;92153.94;1428786;39;20293;31
2021/03/13 06:13:04;;;;;;;;;;;;;;;3.22;77.50;92149.38;1426593;39;20285;31
2021/03/13 06:15:21;;;;;;;;;;;;;;;3.24;78.06;92171.59;1422360;39;21185;31
2021/03/13 06:16:23;;;;;;;;;;;;;;;3.21;77.73;92166.37;1419208;39;20579;31
2021/03/13 06:17:37;;;;;;;;;;;;;;;3.28;77.38;92151.19;1431217;39;20257;31
2021/03/13 06:18:51;;;;;;;;;;;;;;;3.25;77.06;92161.81;1446055;39;20247;31
2021/03/13 06:19:58;;;;;;;;;;;;;;;3.22;78.47;92149.38;1418271;39;20257;31
2021/03/13 06:21:18;;;;;;;;;;;;;;;3.20;78.39;92149.00;1415618;39;20406;31
2021/03/13 06:24:32;;;;;;;;;;;;;;;3.26;76.99;92147.47;1444776;39;20245;31
2021/03/13 06:25:51;;;;;;;;;;;;;;;3.30;78.06;92145.53;1426654;39;21336;31
2021/03/13 06:29:13;;;;;;;;;;;;;;;3.36;76.63;92127.34;1433052;39;22701;31
2021/03/13 06:30:18;;;;;;;;;;;;;;;3.36;77.53;92146.59;1421587;39;21111;31
2021/03/13 06:31:23;;;;;;;;;;;;;;;3.32;76.11;92131.94;1436227;39;20697;31
2021/03/13 06:32:37;;;;;;;;;;;;;;;3.36;76.95;92138.66;1430821;39;21027;31
2021/03/13 06:33:43;;;;;;;;;;;;;;;3.48;75.41;92126.84;1431683;39;21011;31
2021/03/13 06:34:47;;;;;;;;;;;;;;;3.45;76.68;92117.81;1423205;39;21095;31
2021/03/13 06:37:04;;;;;;;;;;;;;;;3.42;76.82;92115.19;1429005;39;21133;31
2021/03/13 06:38:12;;;;;;;;;;;;;;;3.45;76.14;92111.78;1433996;39;20239;31
2021/03/13 06:39:26;;;;;;;;;;;;;;;3.50;75.55;92119.25;1433978;39;21265;31
2021/03/13 06:40:36;;;;;;;;;;;;;;;3.42;77.55;92118.59;1421248;39;20273;31
2021/03/13 06:41:40;;;;;;;;;;;;;;;3.56;74.68;92128.28;1423698;39;21857;31
2021/03/13 06:45:12;;;;;;;;;;;;;;;3.52;76.83;92125.66;1429020;39;20202;31
2021/03/13 06:46:17;;;;;;;;;;;;;;;3.49;76.41;92113.25;1438177;39;22278;31
2021/03/13 06:48:34;;;;;;;;;;;;;;;3.53;76.26;92103.38;1428351;39;21219;31
2021/03/13 06:49:48;;;;;;;;;;;;;;;3.59;75.80;92108.97;1421822;39;21293;31
2021/03/13 06:50:52;;;;;;;;;;;;;;;3.54;75.99;92128.66;1417463;39;20261;31
2021/03/13 06:52:06;;;;;;;;;;;;;;;3.58;75.16;92098.81;1386559;39;20276;31
2021/03/13 06:53:08;;;;;;;;;;;;;;;3.61;74.57;92114.63;1428860;39;22365;31
2021/03/13 06:54:11;;;;;;;;;;;;;;;3.57;74.43;92082.19;1427530;39;20211;31
2021/03/13 06:55:19;;;;;;;;;;;;;;;3.58;73.70;92093.50;1427760;39;20450;31
2021/03/13 06:56:25;;;;;;;;;;;;;;;3.53;75.83;92100.00;1429695;39;22401;31
2021/03/13 06:57:27;;;;;;;;;;;;;;;3.52;75.98;92096.59;1408533;40;20197;31
2021/03/13 06:58:41;;;;;;;;;;;;;;;3.55;75.19;92092.41;1422523;39;20505;31
2021/03/13 06:59:59;;;;;;;;;;;;;;;3.70;73.57;92100.91;1426452;39;20250;31
2021/03/13 07:01:05;;;;;;;;;;;;;;;3.68;74.97;92092.62;1431688;39;20370;31
2021/03/13 07:02:19;;;;;;;;;;;;;;;3.68;75.51;92089.97;1420500;39;20239;31
2021/03/13 07:03:21;;;;;;;;;;;;;;;3.63;75.48;92096.47;1421052;39;20251;31
2021/03/13 07:04:35;;;;;;;;;;;;;;;3.68;74.12;92087.34;1432904;39;20254;31
2021/03/13 07:05:42;;;;;;;;;;;;;;;3.76;73.19;92088.75;1419075;39;20622;31
2021/03/13 07:06:57;;;;;;;;;;;;;;;3.88;71.99;92096.16;1437977;39;22391;31
2021/03/13 07:08:20;;;;;;;;;;;;;;;3.88;71.69;92082.19;1431150;39;20495;31
2021/03/13 07:10:37;;;;;;;;;;;;;;;3.90;71.97;92085.16;1377618;39;20198;31
2021/03/13 07:11:41;;;;;;;;;;;;;;;3.94;73.40;92077.94;1422573;39;20211;31
2021/03/13 07:13:53;;;;;;;;;;;;;;;3.96;71.78;92065.84;1446778;39;20255;31
2021/03/13 07:16:20;;;;;;;;;;;;;;;3.91;73.84;92097.25;1427119;39;22309;31
2021/03/13 07:17:25;;;;;;;;;;;;;;;3.97;71.08;92080.53;1426787;39;20319;31
2021/03/13 07:18:29;;;;;;;;;;;;;;;3.92;73.10;92072.31;1418018;39;20225;31
2021/03/13 07:22:16;;;;;;;;;;;;;;;3.99;72.57;92086.16;1442649;39;20241;31
2021/03/13 07:23:30;;;;;;;;;;;;;;;4.04;73.00;92058.56;1429865;39;20230;31
2021/03/13 07:24:32;;;;;;;;;;;;;;;4.10;71.80;92087.94;1446152;39;22484;31
2021/03/13 07:26:49;;;;;;;;;;;;;;;4.14;71.67;92072.75;1431723;39;20235;31
2021/03/13 07:34:22;;;;;;;;;;;;;;;4.37;69.46;92086.00;1445163;39;20244;31
2021/03/13 07:35:26;;;;;;;;;;;;;;;4.37;69.81;92099.25;1417900;39;20254;31
2021/03/13 07:37:43;;;;;;;;;;;;;;;4.40;68.83;92103.75;1440797;39;20265;31
2021/03/13 07:38:47;;;;;;;;;;;;;;;4.41;69.18;92089.34;1426577;39;22332;31
2021/03/13 07:42:09;;;;;;;;;;;;;;;4.53;67.85;92056.28;1430624;39;22399;31
2021/03/13 07:43:23;;;;;;;;;;;;;;;4.60;66.99;92064.09;1423645;39;22531;31
2021/03/13 07:46:47;;;;;;;;;;;;;;;4.59;67.51;92081.13;1436063;39;20246;31
2021/03/13 07:47:49;;;;;;;;;;;;;;;4.61;68.41;92078.06;1422862;39;20558;31
2021/03/13 07:53:15;;;;;;;;;;;;;;;4.73;65.89;92088.09;1443235;39;20307;31
2021/03/13 07:54:29;;;;;;;;;;;;;;;4.62;64.96;92088.28;1221899;39;20191;-87
2021/03/13 07:55:43;;;;;;;;;;;;;;;4.62;63.61;92085.62;1382931;39;20200;-86
2021/03/13 07:56:48;;;;;;;;;;;;;;;4.61;64.51;92109.84;1317745;39;20219;31
2021/03/13 07:59:11;;;;;;;;;;;;;;;4.67;64.78;92102.94;1435049;39;20179;31
2021/03/13 08:01:14;;;;;;;;;;;;;;;4.59;64.90;92090.97;1423782;39;20959;-84
2021/03/13 08:02:30;;;;;;;;;;;;;;;4.57;64.82;92103.88;1058264;48;20262;-84
2021/03/13 08:03:38;;;;;;;;;;;;;;;4.61;65.11;92112.47;1394429;39;20359;31
2021/03/13 08:05:52;;;;;;;;;;;;;;;4.70;64.13;92102.16;1301963;39;20239;31
2021/03/13 08:07:00;;;;;;;;;;;;;;;4.61;66.33;92110.59;1327181;39;20308;31
2021/03/13 08:09:22;;;;;;;;;;;;;;;4.65;64.84;92089.34;1111073;39;20314;-85
2021/03/13 08:12:45;;;;;;;;;;;;;;;4.73;64.11;92090.72;1446359;39;20280;31
2021/03/13 08:13:59;;;;;;;;;;;;;;;4.77;65.36;92078.94;1440948;39;20209;31
2021/03/13 08:16:18;;;;;;;;;;;;;;;4.78;65.52;92084.97;1441700;39;20355;31
2021/03/13 08:17:33;;;;;;;;;;;;;;;4.86;64.97;92075.75;1423498;39;20917;31
2021/03/13 08:18:38;;;;;;;;;;;;;;;4.83;64.49;92079.25;1421742;39;21514;31
2021/03/13 08:19:44;;;;;;;;;;;;;;;4.92;64.32;92092.69;1422731;39;20255;31
2021/03/13 08:20:45;;;;;;;;;;;;;;;4.95;65.91;92067.28;1171361;39;20262;-84
2021/03/13 08:21:46;;;;;;;;;;;;;;;4.95;65.50;92068.03;1330206;39;20128;31